createdAt,value
2023-04-14T00:00:02.479Z,6.00
2023-04-14T00:01:02.469Z,6.20
2023-04-14T00:02:03.043Z,6.40
2023-04-14T00:03:02.736Z,6.20
2023-04-14T00:04:02.727Z,6.10
2023-04-14T00:05:02.607Z,6.20
2023-04-14T00:06:02.416Z,6.40
2023-04-14T00:07:02.391Z,6.40
2023-04-14T00:08:02.368Z,6.30
2023-04-14T00:09:02.510Z,6.30
2023-04-14T00:10:02.447Z,6.40
2023-04-14T00:11:02.360Z,6.20
2023-04-14T00:12:02.327Z,6.10
2023-04-14T00:13:02.924Z,6.30
2023-04-14T00:14:02.360Z,6.30
2023-04-14T00:15:02.282Z,6.40
2023-04-14T00:16:02.352Z,6.80
2023-04-14T00:17:02.330Z,6.60
2023-04-14T00:18:02.379Z,6.70
2023-04-14T00:19:02.753Z,6.80
2023-04-14T00:20:02.268Z,6.50
2023-04-14T00:21:02.241Z,6.40
2023-04-14T00:22:02.228Z,6.30
2023-04-14T00:23:02.227Z,6.50
2023-04-14T00:24:02.234Z,6.50
2023-04-14T00:25:02.220Z,6.50
2023-04-14T00:26:02.263Z,6.50
2023-04-14T00:27:02.153Z,6.70
2023-04-14T00:28:02.164Z,6.60
2023-04-14T00:29:02.518Z,6.50
2023-04-14T00:30:02.136Z,6.50
2023-04-14T00:31:02.155Z,6.60
2023-04-14T00:32:02.109Z,6.40
2023-04-14T00:33:02.201Z,6.50
2023-04-14T00:34:02.086Z,6.40
2023-04-14T00:35:02.102Z,6.30
2023-04-14T00:36:02.077Z,6.40
2023-04-14T00:37:02.046Z,6.90
2023-04-14T00:38:02.073Z,7.00
2023-04-14T00:39:02.309Z,6.80
2023-04-14T00:40:02.136Z,6.50
2023-04-14T00:41:02.040Z,6.30
2023-04-14T00:42:01.988Z,6.50
2023-04-14T00:43:02.027Z,6.50
2023-04-14T00:44:01.966Z,6.30
2023-04-14T00:45:01.992Z,6.70
2023-04-14T00:46:02.039Z,6.70
2023-04-14T00:47:01.945Z,6.50
2023-04-14T00:48:01.926Z,6.70
2023-04-14T00:49:02.311Z,6.60
2023-04-14T00:50:01.897Z,6.60
2023-04-14T00:51:01.890Z,6.50
2023-04-14T00:52:02.016Z,6.60
2023-04-14T00:53:01.890Z,6.30
2023-04-14T00:54:01.853Z,6.60
2023-04-14T00:55:01.903Z,6.70
2023-04-14T00:56:01.885Z,6.50
2023-04-14T00:57:01.904Z,6.40
2023-04-14T00:58:01.827Z,6.30
2023-04-14T00:59:02.310Z,6.40
2023-04-14T01:00:01.816Z,6.40
2023-04-14T01:01:01.791Z,6.40
2023-04-14T01:02:01.836Z,6.40
2023-04-14T01:03:01.842Z,6.30
2023-04-14T01:04:01.812Z,6.50
2023-04-14T01:05:01.994Z,6.40
2023-04-14T01:06:01.715Z,6.60
2023-04-14T01:07:01.708Z,6.60
2023-04-14T01:08:01.770Z,6.30
2023-04-14T01:09:01.965Z,6.30
2023-04-14T01:10:01.741Z,6.40
2023-04-14T01:11:01.657Z,6.50
2023-04-14T01:12:01.647Z,6.20
2023-04-14T01:13:01.629Z,6.20
2023-04-14T01:14:01.624Z,6.20
2023-04-14T01:15:01.627Z,6.30
2023-04-14T01:16:01.633Z,6.40
2023-04-14T01:17:01.687Z,6.20
2023-04-14T01:18:01.676Z,6.10
2023-04-14T01:19:01.964Z,6.40
2023-04-14T01:20:01.645Z,6.30
2023-04-14T01:21:01.553Z,6.30
2023-04-14T01:22:01.554Z,6.20
2023-04-14T01:23:01.523Z,6.10
2023-04-14T01:24:01.552Z,6.20
2023-04-14T01:25:01.548Z,6.20
2023-04-14T01:26:01.499Z,6.40
2023-04-14T01:27:01.548Z,6.20
2023-04-14T01:28:01.473Z,6.00
2023-04-14T01:29:01.688Z,6.30
2023-04-14T01:30:01.462Z,6.20
2023-04-14T01:31:01.605Z,6.00
2023-04-14T01:32:01.514Z,6.10
2023-04-14T01:33:01.476Z,6.30
2023-04-14T01:34:01.467Z,6.30
2023-04-14T01:35:01.425Z,6.40
2023-04-14T01:36:01.701Z,6.30
2023-04-14T01:37:01.360Z,6.50
2023-04-14T01:38:01.390Z,6.50
2023-04-14T01:39:01.549Z,6.50
2023-04-14T01:40:01.379Z,6.30
2023-04-14T01:41:01.345Z,6.40
2023-04-14T01:42:01.431Z,6.30
2023-04-14T01:43:01.345Z,6.20
2023-04-14T01:44:01.522Z,6.50
2023-04-14T01:45:01.309Z,6.10
2023-04-14T01:46:01.375Z,6.20
2023-04-14T01:47:01.469Z,6.20
2023-04-14T01:48:01.313Z,6.00
2023-04-14T01:49:01.434Z,6.30
2023-04-14T01:50:01.223Z,5.90
2023-04-14T01:51:01.201Z,6.20
2023-04-14T01:52:01.286Z,6.00
2023-04-14T01:53:01.193Z,5.90
2023-04-14T01:54:01.235Z,6.10
2023-04-14T01:55:01.161Z,6.10
2023-04-14T01:56:01.168Z,6.00
2023-04-14T01:57:01.144Z,6.00
2023-04-14T01:58:01.128Z,6.00
2023-04-14T01:59:01.288Z,6.00
2023-04-14T02:00:01.108Z,5.90
2023-04-14T02:01:01.112Z,6.00
2023-04-14T02:02:01.151Z,6.10
2023-04-14T02:03:01.159Z,6.00
2023-04-14T02:04:01.118Z,6.10
2023-04-14T02:05:01.058Z,5.90
2023-04-14T02:06:01.038Z,5.70
2023-04-14T02:07:01.038Z,6.00
2023-04-14T02:08:01.028Z,5.90
2023-04-14T02:09:01.278Z,6.10
2023-04-14T02:10:01.037Z,5.80
2023-04-14T02:11:00.984Z,6.10
2023-04-14T02:12:01.013Z,6.20
2023-04-14T02:13:00.958Z,6.30
2023-04-14T02:14:00.946Z,6.40
2023-04-14T02:15:01.080Z,6.40
2023-04-14T02:16:00.932Z,6.30
2023-04-14T02:17:00.990Z,5.80
2023-04-14T02:18:00.961Z,6.10
2023-04-14T02:19:01.087Z,5.80
2023-04-14T02:20:00.907Z,6.20
2023-04-14T02:21:00.864Z,6.20
2023-04-14T02:22:00.904Z,6.10
2023-04-14T02:23:00.841Z,6.10
2023-04-14T02:24:00.830Z,6.20
2023-04-14T02:25:00.832Z,6.60
2023-04-14T02:26:00.804Z,5.60
2023-04-14T02:27:00.815Z,6.20
2023-04-14T02:28:00.810Z,6.00
2023-04-14T02:29:00.981Z,6.60
2023-04-14T02:30:00.766Z,6.20
2023-04-14T02:31:00.819Z,5.90
2023-04-14T02:32:00.740Z,6.20
2023-04-14T02:33:00.781Z,6.10
2023-04-14T02:34:00.721Z,6.20
2023-04-14T02:35:00.718Z,6.20
2023-04-14T02:36:00.718Z,5.90
2023-04-14T02:37:00.701Z,6.10
2023-04-14T02:38:00.696Z,6.30
2023-04-14T02:39:01.028Z,6.10
2023-04-14T02:40:00.653Z,6.40
2023-04-14T02:41:00.636Z,6.20
2023-04-14T02:42:00.644Z,6.60
2023-04-14T02:43:00.616Z,6.30
2023-04-14T02:44:00.629Z,6.40
2023-04-14T02:45:00.685Z,6.80
2023-04-14T02:46:00.619Z,6.30
2023-04-14T02:47:00.649Z,6.40
2023-04-14T02:48:00.595Z,6.40
2023-04-14T02:49:00.789Z,6.30
2023-04-14T02:50:00.590Z,6.20
2023-04-14T02:51:00.536Z,6.30
2023-04-14T02:52:00.542Z,6.30
2023-04-14T02:53:00.505Z,6.10
2023-04-14T02:54:00.498Z,6.50
2023-04-14T02:55:00.487Z,5.90
2023-04-14T02:56:00.488Z,6.50
2023-04-14T02:57:00.469Z,6.30
2023-04-14T02:58:00.457Z,6.30
2023-04-14T02:59:00.731Z,6.50
2023-04-14T03:00:00.447Z,6.40
2023-04-14T03:01:00.416Z,6.40
2023-04-14T03:02:00.577Z,6.50
2023-04-14T03:03:00.468Z,6.90
2023-04-14T03:04:00.469Z,6.80
2023-04-14T03:05:00.391Z,6.90
2023-04-14T03:06:00.366Z,6.90
2023-04-14T03:07:00.347Z,7.00
2023-04-14T03:08:00.356Z,6.80
2023-04-14T03:09:00.636Z,6.10
2023-04-14T03:10:00.327Z,6.60
2023-04-14T03:11:00.307Z,6.50
2023-04-14T03:12:00.308Z,6.70
2023-04-14T03:13:00.307Z,7.00
2023-04-14T03:14:00.295Z,6.80
2023-04-14T03:15:00.267Z,6.60
2023-04-14T03:16:00.276Z,6.00
2023-04-14T03:17:00.250Z,6.50
2023-04-14T03:18:00.280Z,6.10
2023-04-14T03:19:00.418Z,6.50
2023-04-14T03:20:00.269Z,6.70
2023-04-14T03:21:00.190Z,6.60
2023-04-14T03:22:00.265Z,6.20
2023-04-14T03:23:00.185Z,5.90
2023-04-14T03:24:00.165Z,6.10
2023-04-14T03:25:00.167Z,6.50
2023-04-14T03:26:00.149Z,5.50
2023-04-14T03:27:00.158Z,5.90
2023-04-14T03:28:00.131Z,5.60
2023-04-14T03:29:00.361Z,6.00
2023-04-14T03:30:00.104Z,6.00
2023-04-14T03:31:00.120Z,5.90
2023-04-14T03:32:00.085Z,5.80
2023-04-14T03:33:00.148Z,5.90
2023-04-14T03:34:00.087Z,6.00
2023-04-14T03:35:00.032Z,6.10
2023-04-14T03:36:00.086Z,5.80
2023-04-14T03:37:00.008Z,6.10
2023-04-14T03:37:59.996Z,6.20
2023-04-14T03:39:00.197Z,6.50
2023-04-14T03:39:59.977Z,6.00
2023-04-14T03:41:00.983Z,6.00
2023-04-14T03:41:59.970Z,6.40
2023-04-14T03:42:59.959Z,5.90
2023-04-14T03:43:59.930Z,6.20
2023-04-14T03:44:59.919Z,6.00
2023-04-14T03:45:59.914Z,5.70
2023-04-14T03:46:59.905Z,6.20
2023-04-14T03:47:59.966Z,6.20
2023-04-14T03:49:00.218Z,6.20
2023-04-14T03:49:59.878Z,6.00
2023-04-14T03:50:59.854Z,6.10
2023-04-14T03:51:59.841Z,6.20
2023-04-14T03:53:00.050Z,6.40
2023-04-14T03:53:59.817Z,5.90
2023-04-14T03:54:59.843Z,6.50
2023-04-14T03:55:59.809Z,5.90
2023-04-14T03:56:59.786Z,6.30
2023-04-14T03:57:59.791Z,6.00
2023-04-14T03:59:00.069Z,6.50
2023-04-14T03:59:59.751Z,6.40
2023-04-14T04:00:59.751Z,6.40
2023-04-14T04:01:59.774Z,6.50
2023-04-14T04:02:59.939Z,6.70
2023-04-14T04:03:59.791Z,6.50
2023-04-14T04:04:59.928Z,6.70
2023-04-14T04:05:59.701Z,5.90
2023-04-14T04:06:59.685Z,6.50
2023-04-14T04:07:59.665Z,6.60
2023-04-14T04:09:00.052Z,6.40
2023-04-14T04:09:59.639Z,6.50
2023-04-14T04:10:59.627Z,6.40
2023-04-14T04:11:59.623Z,6.40
2023-04-14T04:12:59.622Z,6.50
2023-04-14T04:13:59.617Z,6.60
2023-04-14T04:14:59.579Z,6.70
2023-04-14T04:15:59.571Z,6.60
2023-04-14T04:16:59.631Z,6.40
2023-04-14T04:17:59.584Z,6.80
2023-04-14T04:18:59.809Z,6.60
2023-04-14T04:19:59.545Z,6.70
2023-04-14T04:20:59.577Z,6.60
2023-04-14T04:21:59.502Z,6.60
2023-04-14T04:22:59.489Z,6.90
2023-04-14T04:23:59.554Z,6.30
2023-04-14T04:24:59.493Z,6.70
2023-04-14T04:25:59.470Z,6.40
2023-04-14T04:26:59.448Z,6.70
2023-04-14T04:27:59.430Z,7.10
2023-04-14T04:28:59.730Z,6.30
2023-04-14T04:29:59.412Z,6.30
2023-04-14T04:30:59.415Z,6.50
2023-04-14T04:31:59.493Z,7.40
2023-04-14T04:32:59.477Z,6.70
2023-04-14T04:33:59.383Z,7.00
2023-04-14T04:34:59.357Z,6.70
2023-04-14T04:35:59.416Z,6.50
2023-04-14T04:36:59.351Z,6.90
2023-04-14T04:37:59.353Z,7.10
2023-04-14T04:38:59.553Z,7.00
2023-04-14T04:39:59.302Z,7.00
2023-04-14T04:40:59.320Z,6.70
2023-04-14T04:42:06.333Z,6.90
2023-04-14T04:42:59.264Z,7.10
2023-04-14T04:43:59.252Z,7.20
2023-04-14T04:44:59.251Z,7.20
2023-04-14T04:45:59.294Z,7.10
2023-04-14T04:46:59.241Z,7.10
2023-04-14T04:47:59.332Z,7.50
2023-04-14T04:48:59.445Z,7.20
2023-04-14T04:49:59.185Z,7.10
2023-04-14T04:50:59.191Z,6.70
2023-04-14T04:51:59.183Z,7.00
2023-04-14T04:52:59.218Z,7.70
2023-04-14T04:53:59.151Z,7.60
2023-04-14T04:54:59.133Z,8.00
2023-04-14T04:55:59.125Z,7.60
2023-04-14T04:56:59.154Z,7.90
2023-04-14T04:58:00.070Z,7.80
2023-04-14T04:58:59.306Z,7.80
2023-04-14T04:59:59.086Z,7.70
2023-04-14T05:00:59.085Z,7.70
2023-04-14T05:01:59.205Z,8.00
2023-04-14T05:02:59.240Z,8.10
2023-04-14T05:03:59.062Z,7.50
2023-04-14T05:04:59.020Z,7.50
2023-04-14T05:05:59.012Z,8.00
2023-04-14T05:06:58.995Z,7.80
2023-04-14T05:07:59.042Z,7.60
2023-04-14T05:08:59.182Z,7.60
2023-04-14T05:09:58.971Z,8.10
2023-04-14T05:10:58.960Z,7.30
2023-04-14T05:11:58.964Z,7.90
2023-04-14T05:12:58.930Z,7.70
2023-04-14T05:13:58.918Z,7.70
2023-04-14T05:14:58.912Z,7.80
2023-04-14T05:15:58.927Z,7.40
2023-04-14T05:16:58.901Z,7.40
2023-04-14T05:17:58.910Z,8.10
2023-04-14T05:18:59.238Z,7.20
2023-04-14T05:19:58.853Z,7.30
2023-04-14T05:20:58.854Z,7.20
2023-04-14T05:21:58.836Z,7.40
2023-04-14T05:22:58.838Z,7.60
2023-04-14T05:23:58.829Z,7.20
2023-04-14T05:24:58.803Z,7.70
2023-04-14T05:26:11.270Z,7.60
2023-04-14T05:27:59.837Z,7.60
2023-04-14T05:28:58.862Z,7.50
2023-04-14T05:29:58.746Z,7.70
2023-04-14T05:31:00.664Z,7.70
2023-04-14T05:31:58.733Z,8.10
2023-04-14T05:32:58.720Z,8.10
2023-04-14T05:33:58.988Z,8.00
2023-04-14T05:34:58.689Z,8.20
2023-04-14T05:35:58.674Z,8.00
2023-04-14T05:36:58.675Z,8.00
2023-04-14T05:37:58.658Z,7.90
2023-04-14T05:38:58.649Z,7.60
2023-04-14T05:39:58.675Z,7.90
2023-04-14T05:40:58.617Z,7.90
2023-04-14T05:41:58.608Z,8.10
2023-04-14T05:42:58.751Z,7.80
2023-04-14T05:43:58.717Z,8.10
2023-04-14T05:44:58.584Z,8.10
2023-04-14T05:45:58.579Z,8.10
2023-04-14T05:46:58.572Z,7.80
2023-04-14T05:47:59.112Z,8.20
2023-04-14T05:48:58.640Z,8.10
2023-04-14T05:49:58.594Z,8.10
2023-04-14T05:50:58.529Z,7.90
2023-04-14T05:51:58.514Z,8.30
2023-04-14T05:52:58.489Z,8.60
2023-04-14T05:53:58.784Z,8.00
2023-04-14T05:54:59.070Z,8.00
2023-04-14T05:55:58.469Z,8.10
2023-04-14T05:56:58.464Z,8.10
2023-04-14T05:57:58.427Z,8.20
2023-04-14T05:58:58.410Z,8.80
2023-04-14T05:59:58.495Z,8.10
2023-04-14T06:00:58.414Z,7.80
2023-04-14T06:01:58.454Z,7.70
2023-04-14T06:02:58.547Z,8.40
2023-04-14T06:03:58.781Z,7.60
2023-04-14T06:04:58.439Z,7.80
2023-04-14T06:05:58.346Z,8.10
2023-04-14T06:06:58.370Z,7.80
2023-04-14T06:07:58.310Z,7.90
2023-04-14T06:08:58.533Z,7.80
2023-04-14T06:09:58.296Z,8.10
2023-04-14T06:10:58.291Z,8.00
2023-04-14T06:11:59.738Z,8.10
2023-04-14T06:12:58.273Z,8.10
2023-04-14T06:13:58.262Z,7.70
2023-04-14T06:14:58.233Z,8.00
2023-04-14T06:15:58.263Z,7.50
2023-04-14T06:16:58.291Z,8.10
2023-04-14T06:17:58.268Z,7.90
2023-04-14T06:18:59.174Z,8.00
2023-04-14T06:19:58.230Z,8.10
2023-04-14T06:20:58.171Z,7.90
2023-04-14T06:21:58.154Z,7.80
2023-04-14T06:22:58.145Z,8.20
2023-04-14T06:23:58.158Z,7.30
2023-04-14T06:24:58.124Z,7.80
2023-04-14T06:25:58.128Z,7.50
2023-04-14T06:26:58.101Z,8.00
2023-04-14T06:27:58.123Z,7.80
2023-04-14T06:28:58.263Z,7.00
2023-04-14T06:29:58.082Z,7.40
2023-04-14T06:30:58.058Z,7.10
2023-04-14T06:31:58.062Z,7.20
2023-04-14T06:32:58.064Z,7.10
2023-04-14T06:33:58.038Z,7.80
2023-04-14T06:34:58.026Z,7.90
2023-04-14T06:35:58.017Z,7.90
2023-04-14T06:36:57.989Z,7.70
2023-04-14T06:37:57.982Z,7.90
2023-04-14T06:38:58.097Z,8.00
2023-04-14T06:39:57.966Z,7.80
2023-04-14T06:40:58.010Z,7.90
2023-04-14T06:41:57.932Z,8.00
2023-04-14T06:42:57.931Z,8.30
2023-04-14T06:43:57.943Z,8.10
2023-04-14T06:44:57.947Z,7.50
2023-04-14T06:45:57.952Z,7.70
2023-04-14T06:46:57.874Z,7.60
2023-04-14T06:47:57.939Z,8.30
2023-04-14T06:48:57.854Z,7.80
2023-04-14T06:49:57.885Z,8.20
2023-04-14T06:50:57.848Z,7.70
2023-04-14T06:51:57.832Z,8.00
2023-04-14T06:52:57.821Z,7.80
2023-04-14T06:53:57.809Z,7.40
2023-04-14T06:54:57.799Z,7.90
2023-04-14T06:55:57.794Z,7.60
2023-04-14T06:56:59.445Z,7.60
2023-04-14T06:57:59.557Z,7.90
2023-04-14T06:58:58.587Z,8.00
2023-04-14T06:59:57.822Z,7.70
2023-04-14T07:00:57.760Z,7.40
2023-04-14T07:01:57.734Z,7.20
2023-04-14T07:02:57.928Z,7.20
2023-04-14T07:03:57.750Z,6.90
2023-04-14T07:04:57.787Z,6.70
2023-04-14T07:05:57.679Z,6.30
2023-04-14T07:06:57.657Z,6.70
2023-04-14T07:07:57.645Z,0.00
2023-04-14T07:08:57.628Z,0.10
2023-04-14T07:09:57.671Z,0.00
2023-04-14T07:10:57.770Z,0.00
2023-04-14T07:11:57.599Z,0.00
2023-04-14T07:12:57.586Z,0.00
2023-04-14T07:13:57.570Z,0.20
2023-04-14T07:14:57.566Z,1.60
2023-04-14T07:15:57.750Z,0.70
2023-04-14T07:16:57.538Z,0.20
2023-04-14T07:17:59.866Z,0.00
2023-04-14T07:18:57.519Z,0.90
2023-04-14T07:19:57.520Z,3.10
2023-04-14T07:20:57.501Z,0.00
2023-04-14T07:21:57.487Z,0.20
2023-04-14T07:22:57.472Z,0.80
2023-04-14T07:23:57.461Z,0.10
2023-04-14T07:24:57.448Z,0.00
2023-04-14T07:25:57.468Z,0.10
2023-04-14T07:26:57.431Z,0.00
2023-04-14T07:28:03.181Z,0.00
2023-04-14T07:28:58.572Z,0.00
2023-04-14T07:29:57.488Z,0.00
2023-04-14T07:30:57.460Z,0.00
2023-04-14T07:31:57.399Z,0.00
2023-04-14T07:32:57.378Z,0.00
2023-04-14T07:33:57.351Z,0.00
2023-04-14T07:34:58.912Z,0.00
2023-04-14T07:36:57.318Z,0.00
2023-04-14T07:37:57.315Z,0.00
2023-04-14T07:38:57.305Z,0.00
2023-04-14T07:39:57.293Z,0.00
2023-04-14T07:40:57.294Z,0.00
2023-04-14T07:41:57.262Z,0.00
2023-04-14T07:42:57.249Z,0.00
2023-04-14T07:43:57.244Z,0.00
2023-04-14T07:44:57.227Z,0.00
2023-04-14T07:45:57.271Z,0.00
2023-04-14T07:46:58.058Z,0.00
2023-04-14T07:47:57.939Z,0.00
2023-04-14T07:48:57.264Z,0.00
2023-04-14T07:49:57.176Z,0.00
2023-04-14T07:50:57.180Z,0.00
2023-04-14T07:51:57.159Z,0.00
2023-04-14T07:52:57.140Z,0.00
2023-04-14T07:53:57.130Z,0.00
2023-04-14T07:54:57.126Z,0.00
2023-04-14T07:55:57.166Z,0.00
2023-04-14T07:56:57.168Z,0.00
2023-04-14T07:57:57.088Z,0.00
2023-04-14T07:58:57.076Z,0.00
2023-04-14T07:59:57.054Z,0.00
2023-04-14T08:00:57.050Z,0.00
2023-04-14T08:01:57.187Z,0.00
2023-04-14T08:02:57.094Z,0.00
2023-04-14T08:03:57.360Z,0.00
2023-04-14T08:04:57.049Z,0.00
2023-04-14T08:05:57.007Z,0.00
2023-04-14T08:06:56.990Z,0.00
2023-04-14T08:07:56.968Z,0.00
2023-04-14T08:08:56.969Z,0.00
2023-04-14T08:09:56.950Z,0.00
2023-04-14T08:10:56.948Z,0.00
2023-04-14T08:11:56.941Z,0.00
2023-04-14T08:12:56.934Z,0.00
2023-04-14T08:13:56.903Z,0.00
2023-04-14T08:14:56.916Z,0.00
2023-04-14T08:15:56.918Z,0.00
2023-04-14T08:16:56.868Z,0.00
2023-04-14T08:17:56.918Z,0.00
2023-04-14T08:18:58.217Z,0.00
2023-04-14T08:19:56.851Z,0.00
2023-04-14T08:20:56.840Z,0.00
2023-04-14T08:21:56.811Z,0.00
2023-04-14T08:22:56.802Z,0.00
2023-04-14T08:23:56.788Z,0.00
2023-04-14T08:24:56.784Z,0.00
2023-04-14T08:25:56.788Z,0.00
2023-04-14T08:26:57.669Z,0.00
2023-04-14T08:27:56.750Z,0.00
2023-04-14T08:28:58.184Z,0.00
2023-04-14T08:29:57.562Z,0.00
2023-04-14T08:30:57.569Z,0.00
2023-04-14T08:31:56.755Z,0.00
2023-04-14T08:32:58.907Z,0.00
2023-04-14T08:33:57.587Z,0.00
2023-04-14T08:35:35.088Z,0.00
2023-04-14T08:36:00.355Z,0.00
2023-04-14T08:36:56.643Z,0.00
2023-04-14T08:37:56.635Z,0.00
2023-04-14T08:38:56.625Z,0.00
2023-04-14T08:39:56.611Z,0.00
2023-04-14T08:40:56.848Z,0.00
2023-04-14T08:41:56.613Z,0.00
2023-04-14T08:42:56.576Z,0.00
2023-04-14T08:43:56.588Z,0.00
2023-04-14T08:44:56.562Z,0.00
2023-04-14T08:45:56.584Z,0.00
2023-04-14T08:46:56.547Z,0.00
2023-04-14T08:47:56.646Z,0.00
2023-04-14T08:48:56.528Z,0.00
2023-04-14T08:49:56.509Z,0.00
2023-04-14T08:50:56.508Z,0.00
2023-04-14T08:51:56.497Z,0.00
2023-04-14T08:52:56.510Z,0.00
2023-04-14T08:53:56.476Z,0.00
2023-04-14T08:54:56.517Z,0.00
2023-04-14T08:55:58.408Z,0.00
2023-04-14T08:56:56.424Z,0.00
2023-04-14T08:57:56.424Z,0.00
2023-04-14T08:58:56.433Z,0.00
2023-04-14T08:59:56.464Z,0.00
2023-04-14T09:00:56.414Z,0.00
2023-04-14T09:01:56.507Z,0.00
2023-04-14T09:02:56.554Z,0.00
2023-04-14T09:03:56.445Z,0.00
2023-04-14T09:04:56.502Z,2.40
2023-04-14T09:05:56.337Z,0.00
2023-04-14T09:06:56.316Z,0.10
2023-04-14T09:07:56.323Z,0.00
2023-04-14T09:08:56.309Z,0.30
2023-04-14T09:09:56.304Z,0.70
2023-04-14T09:10:56.308Z,0.30
2023-04-14T09:11:56.322Z,1.00
2023-04-14T09:12:56.262Z,0.80
2023-04-14T09:13:56.243Z,2.00
2023-04-14T09:14:56.263Z,0.00
2023-04-14T09:15:56.249Z,0.00
2023-04-14T09:16:56.303Z,0.00
2023-04-14T09:17:56.250Z,0.00
2023-04-14T09:18:56.191Z,0.00
2023-04-14T09:20:35.462Z,0.00
2023-04-14T09:21:51.061Z,0.00
2023-04-14T09:21:57.364Z,0.10
2023-04-14T09:22:56.170Z,0.00
2023-04-14T09:23:56.156Z,0.00
2023-04-14T09:24:56.169Z,0.00
2023-04-14T09:25:56.116Z,0.00
2023-04-14T09:26:56.100Z,0.00
2023-04-14T09:27:56.101Z,0.00
2023-04-14T09:28:56.649Z,0.00
2023-04-14T09:29:56.091Z,0.00
2023-04-14T09:30:56.318Z,0.00
2023-04-14T09:31:56.043Z,0.00
2023-04-14T09:32:56.079Z,0.00
2023-04-14T09:33:56.049Z,0.00
2023-04-14T09:34:57.789Z,0.00
2023-04-14T09:35:56.088Z,0.00
2023-04-14T09:36:55.994Z,0.00
2023-04-14T09:37:55.986Z,0.00
2023-04-14T09:38:55.966Z,0.00
2023-04-14T09:39:56.010Z,0.00
2023-04-14T09:40:57.059Z,0.00
2023-04-14T09:41:55.937Z,0.00
2023-04-14T09:42:55.923Z,0.00
2023-04-14T09:43:55.914Z,0.00
2023-04-14T09:44:55.929Z,0.00
2023-04-14T09:45:55.998Z,0.00
2023-04-14T09:46:56.834Z,1.10
2023-04-14T09:47:55.927Z,1.10
2023-04-14T09:48:56.180Z,0.90
2023-04-14T09:49:55.850Z,1.00
2023-04-14T09:50:55.847Z,1.10
2023-04-14T09:51:55.819Z,0.90
2023-04-14T09:52:55.820Z,0.70
2023-04-14T09:53:55.822Z,0.40
2023-04-14T09:54:55.787Z,0.40
2023-04-14T09:55:55.795Z,0.10
2023-04-14T09:56:55.793Z,0.00
2023-04-14T09:57:55.825Z,0.20
2023-04-14T09:58:55.752Z,0.20
2023-04-14T09:59:55.728Z,0.20
2023-04-14T10:00:55.711Z,0.20
2023-04-14T10:01:55.795Z,0.40
2023-04-14T10:02:55.825Z,0.30
2023-04-14T10:03:55.780Z,0.20
2023-04-14T10:04:55.771Z,0.20
2023-04-14T10:05:55.675Z,0.20
2023-04-14T10:06:55.653Z,0.20
2023-04-14T10:07:55.692Z,0.30
2023-04-14T10:08:55.653Z,0.30
2023-04-14T10:09:55.639Z,0.40
2023-04-14T10:10:55.607Z,0.30
2023-04-14T10:11:55.612Z,0.30
2023-04-14T10:12:55.602Z,0.30
2023-04-14T10:13:55.610Z,0.30
2023-04-14T10:14:55.571Z,0.30
2023-04-14T10:15:55.633Z,0.30
2023-04-14T10:16:55.542Z,0.20
2023-04-14T10:17:55.554Z,0.20
2023-04-14T10:18:55.570Z,0.20
2023-04-14T10:19:55.515Z,0.30
2023-04-14T10:20:55.505Z,0.30
2023-04-14T10:21:55.492Z,0.20
2023-04-14T10:22:55.573Z,0.10
2023-04-14T10:23:55.499Z,0.20
2023-04-14T10:24:55.456Z,0.10
2023-04-14T10:25:55.440Z,0.20
2023-04-14T10:26:55.447Z,0.20
2023-04-14T10:27:55.439Z,0.10
2023-04-14T10:28:55.428Z,0.20
2023-04-14T10:29:55.579Z,0.20
2023-04-14T10:30:55.385Z,0.20
2023-04-14T10:31:55.441Z,0.20
2023-04-14T10:32:55.398Z,0.20
2023-04-14T10:33:55.349Z,0.20
2023-04-14T10:34:55.439Z,0.20
2023-04-14T10:35:55.324Z,0.10
2023-04-14T10:36:56.166Z,0.10
2023-04-14T10:37:55.309Z,0.10
2023-04-14T10:38:55.296Z,0.20
2023-04-14T10:39:55.302Z,0.10
2023-04-14T10:40:55.267Z,0.10
2023-04-14T10:41:55.260Z,0.20
2023-04-14T10:43:03.247Z,0.00
2023-04-14T10:43:55.242Z,0.10
2023-04-14T10:44:55.239Z,0.20
2023-04-14T10:45:55.224Z,0.10
2023-04-14T10:46:55.253Z,0.20
2023-04-14T10:47:55.221Z,0.20
2023-04-14T10:48:55.696Z,0.20
2023-04-14T10:49:55.211Z,0.20
2023-04-14T10:50:55.249Z,0.10
2023-04-14T10:51:55.168Z,0.10
2023-04-14T10:52:55.143Z,0.20
2023-04-14T10:53:55.127Z,0.20
2023-04-14T10:54:55.127Z,0.20
2023-04-14T10:55:55.123Z,0.20
2023-04-14T10:56:55.091Z,0.20
2023-04-14T10:57:55.157Z,0.20
2023-04-14T10:58:55.091Z,0.10
2023-04-14T10:59:55.060Z,0.10
2023-04-14T11:00:55.107Z,0.20
2023-04-14T11:01:55.094Z,0.20
2023-04-14T11:02:55.171Z,0.20
2023-04-14T11:03:55.327Z,0.20
2023-04-14T11:04:55.057Z,0.10
2023-04-14T11:05:54.994Z,0.10
2023-04-14T11:06:55.009Z,0.10
2023-04-14T11:07:54.976Z,0.10
2023-04-14T11:08:54.973Z,0.00
2023-04-14T11:09:54.945Z,0.10
2023-04-14T11:10:54.961Z,0.10
2023-04-14T11:11:54.937Z,0.10
2023-04-14T11:12:54.926Z,0.10
2023-04-14T11:13:54.904Z,0.10
2023-04-14T11:14:55.102Z,0.10
2023-04-14T11:15:54.900Z,0.10
2023-04-14T11:17:04.108Z,0.10
2023-04-14T11:17:55.875Z,0.10
2023-04-14T11:18:54.848Z,0.10
2023-04-14T11:19:54.844Z,0.10
2023-04-14T11:20:54.873Z,0.20
2023-04-14T11:21:54.840Z,0.20
2023-04-14T11:22:54.807Z,0.10
2023-04-14T11:23:54.797Z,0.10
2023-04-14T11:24:54.795Z,0.10
2023-04-14T11:25:54.813Z,0.00
2023-04-14T11:26:54.822Z,0.10
2023-04-14T11:27:54.765Z,0.10
2023-04-14T11:28:54.752Z,0.10
2023-04-14T11:29:54.747Z,0.10
2023-04-14T11:30:54.753Z,0.20
2023-04-14T11:31:54.749Z,0.20
2023-04-14T11:32:54.746Z,0.10
2023-04-14T11:33:54.680Z,0.10
2023-04-14T11:34:54.672Z,0.20
2023-04-14T11:35:54.756Z,0.10
2023-04-14T11:36:54.689Z,0.10
2023-04-14T11:37:54.645Z,0.10
2023-04-14T11:38:54.634Z,0.20
2023-04-14T11:39:54.612Z,0.10
2023-04-14T11:40:54.603Z,0.10
2023-04-14T11:41:54.607Z,0.10
2023-04-14T11:42:54.690Z,0.20
2023-04-14T11:43:54.570Z,0.10
2023-04-14T11:44:54.557Z,0.10
2023-04-14T11:45:54.582Z,0.10
2023-04-14T11:46:54.577Z,0.10
2023-04-14T11:47:54.568Z,0.10
2023-04-14T11:48:54.510Z,0.10
2023-04-14T11:49:54.517Z,0.10
2023-04-14T11:50:54.510Z,0.20
2023-04-14T11:51:54.494Z,0.20
2023-04-14T11:52:54.469Z,0.20
2023-04-14T11:53:54.465Z,0.20
2023-04-14T11:54:54.565Z,0.20
2023-04-14T11:55:54.455Z,0.20
2023-04-14T11:56:54.439Z,0.20
2023-04-14T11:57:54.419Z,0.20
2023-04-14T11:58:54.412Z,0.20
2023-04-14T11:59:54.390Z,0.20
2023-04-14T12:00:56.214Z,0.20
2023-04-14T12:01:54.503Z,0.20
2023-04-14T12:02:54.578Z,0.20
2023-04-14T12:03:54.485Z,0.20
2023-04-14T12:04:54.742Z,0.20
2023-04-14T12:05:54.330Z,0.20
2023-04-14T12:06:54.933Z,0.20
2023-04-14T12:07:54.314Z,0.20
2023-04-14T12:08:54.298Z,0.20
2023-04-14T12:09:54.294Z,0.20
2023-04-14T12:10:54.270Z,0.20
2023-04-14T12:11:54.270Z,0.20
2023-04-14T12:12:54.267Z,0.20
2023-04-14T12:13:54.251Z,0.20
2023-04-14T12:14:54.252Z,0.30
2023-04-14T12:15:54.378Z,0.20
2023-04-14T12:16:54.221Z,0.30
2023-04-14T12:17:55.045Z,0.20
2023-04-14T12:18:54.204Z,0.20
2023-04-14T12:19:54.181Z,0.20
2023-04-14T12:20:54.201Z,0.20
2023-04-14T12:21:54.171Z,0.80
2023-04-14T12:22:54.138Z,0.20
2023-04-14T12:23:54.129Z,0.20
2023-04-14T12:24:54.118Z,0.30
2023-04-14T12:25:54.105Z,0.20
2023-04-14T12:26:54.134Z,0.20
2023-04-14T12:27:57.024Z,0.20
2023-04-14T12:28:54.068Z,0.20
2023-04-14T12:29:54.065Z,0.30
2023-04-14T12:30:54.073Z,0.20
2023-04-14T12:31:54.048Z,0.30
2023-04-14T12:32:54.073Z,0.20
2023-04-14T12:33:54.926Z,0.20
2023-04-14T12:34:54.030Z,0.20
2023-04-14T12:35:54.005Z,0.20
2023-04-14T12:36:54.013Z,0.20
2023-04-14T12:37:53.981Z,0.20
2023-04-14T12:38:53.956Z,0.20
2023-04-14T12:39:54.001Z,0.20
2023-04-14T12:40:53.937Z,0.20
2023-04-14T12:41:53.957Z,0.20
2023-04-14T12:42:53.931Z,0.20
2023-04-14T12:43:53.945Z,0.20
2023-04-14T12:44:54.017Z,0.20
2023-04-14T12:45:53.883Z,0.20
2023-04-14T12:46:54.030Z,0.20
2023-04-14T12:47:53.898Z,0.20
2023-04-14T12:48:53.851Z,0.30
2023-04-14T12:49:53.837Z,0.20
2023-04-14T12:50:53.845Z,0.20
2023-04-14T12:51:53.913Z,0.20
2023-04-14T12:52:53.806Z,0.20
2023-04-14T12:53:53.801Z,0.20
2023-04-14T12:54:53.784Z,0.20
2023-04-14T12:55:53.772Z,0.20
2023-04-14T12:56:53.790Z,0.30
2023-04-14T12:57:53.754Z,0.30
2023-04-14T12:58:53.766Z,0.30
2023-04-14T12:59:53.777Z,0.30
2023-04-14T13:00:53.894Z,0.30
2023-04-14T13:01:53.868Z,0.30
2023-04-14T13:02:53.848Z,0.30
2023-04-14T13:03:53.935Z,0.30
2023-04-14T13:04:53.682Z,0.30
2023-04-14T13:05:53.662Z,0.30
2023-04-14T13:06:53.680Z,0.30
2023-04-14T13:07:53.707Z,0.30
2023-04-14T13:08:53.668Z,0.30
2023-04-14T13:09:53.639Z,0.20
2023-04-14T13:10:53.643Z,0.30
2023-04-14T13:11:53.635Z,0.30
2023-04-14T13:12:53.579Z,0.30
2023-04-14T13:13:53.734Z,0.30
2023-04-14T13:14:53.568Z,0.30
2023-04-14T13:16:12.813Z,0.30
2023-04-14T13:16:56.049Z,0.30
2023-04-14T13:17:54.234Z,0.20
2023-04-14T13:18:53.617Z,0.20
2023-04-14T13:19:53.596Z,0.30